Bugra Tomba — TCEJ — position and weather

sailwx.info

Track history (hours):
 
Tides and Currents Weather Stations Pressure Air Temp Water Temp Dewpoint Dewpoint Depression Visibility Wind Speed Wind Dir Waves Ship Positions

Bugra Tomba

Last reported at 2017-Jul-14 13:54 UTC. Time now 2017-Jul-26 20:32 UTC.
Position N 36°24' E 028°56'.
Warning: this ship's position is 12 days out of date.

Length 99 m; draft 6.2 m.

Type: Cargo ship. MMSI: 271000025.

Date/timePositionNaut miles runAvg speedWind from/ knotsBaromVisibWave heightAir tempDewpointWater temp
2017-Jul-14 13:54N 36°24' E 028°56'10 8.6
2017-Jul-14 12:46N 36°18' E 029°06'4 9.0
2017-Jul-14 12:23N 36°16' E 029°10'63 9.2
2017-Jul-14 05:31N 36°08' E 030°28'010.1
2017-Jul-14 05:29N 36°08' E 030°28'5 9.8
2017-Jul-14 04:56N 36°08' E 030°35'4 9.6
2017-Jul-14 04:30N 36°09' E 030°40'5 9.3
2017-Jul-14 04:01N 36°09' E 030°45'5 9.1
2017-Jul-14 03:30N 36°09' E 030°51'4 9.0
2017-Jul-14 03:00N 36°10' E 030°57'4 8.8
2017-Jul-14 02:30N 36°10' E 031°02'4 8.5
2017-Jul-14 02:01N 36°10' E 031°07'4 8.6
2017-Jul-14 01:30N 36°10' E 031°12'4 8.7
2017-Jul-14 01:00N 36°09' E 031°18'5 8.7
2017-Jul-14 00:28N 36°09' E 031°24'4 8.6
2017-Jul-14 00:00N 36°08' E 031°29'4 8.5
2017-Jul-13 23:31N 36°07' E 031°34'4 8.8
2017-Jul-13 23:00N 36°07' E 031°39'4 8.8
2017-Jul-13 22:30N 36°06' E 031°45'4 8.7
2017-Jul-13 22:00N 36°06' E 031°50'4 8.7
2017-Jul-13 21:31N 36°05' E 031°55'4 8.5
2017-Jul-13 21:00N 36°04' E 032°00'4 8.5
2017-Jul-13 20:31N 36°03' E 032°05'4 8.5
2017-Jul-13 20:00N 36°02' E 032°11'4 8.3
2017-Jul-13 19:28N 36°01' E 032°16'19 8.4
2017-Jul-13 17:10N 35°60' E 032°40'1 8.9
2017-Jul-13 17:01N 35°60' E 032°41'78 9.2
2017-Jul-13 08:29N 36°15' E 034°16'  
Track history (hours):
 
Tides and Currents Weather Stations Pressure Air Temp Water Temp Dewpoint Dewpoint Depression Visibility Wind Speed Wind Dir Waves Ship Positions

Bugra Tomba

Last reported at 2017-Jul-14 13:54 UTC. Time now 2017-Jul-26 20:32 UTC.
Position N 36°24' E 028°56'.
Warning: this ship's position is 12 days out of date.

Length 99 m; draft 6.2 m.

Type: Cargo ship. MMSI: 271000025.

Date/timePositionNaut miles runAvg speedWind from/ knotsBaromVisibWave heightAir tempDewpointWater temp
2017-Jul-14 13:54N 36°24' E 028°56'10 8.6
2017-Jul-14 12:46N 36°18' E 029°06'4 9.0
2017-Jul-14 12:23N 36°16' E 029°10'63 9.2
2017-Jul-14 05:31N 36°08' E 030°28'010.1
2017-Jul-14 05:29N 36°08' E 030°28'5 9.8
2017-Jul-14 04:56N 36°08' E 030°35'4 9.6
2017-Jul-14 04:30N 36°09' E 030°40'5 9.3
2017-Jul-14 04:01N 36°09' E 030°45'5 9.1
2017-Jul-14 03:30N 36°09' E 030°51'4 9.0
2017-Jul-14 03:00N 36°10' E 030°57'4 8.8
2017-Jul-14 02:30N 36°10' E 031°02'4 8.5
2017-Jul-14 02:01N 36°10' E 031°07'4 8.6
2017-Jul-14 01:30N 36°10' E 031°12'4 8.7
2017-Jul-14 01:00N 36°09' E 031°18'5 8.7
2017-Jul-14 00:28N 36°09' E 031°24'4 8.6
2017-Jul-14 00:00N 36°08' E 031°29'4 8.5
2017-Jul-13 23:31N 36°07' E 031°34'4 8.8
2017-Jul-13 23:00N 36°07' E 031°39'4 8.8
2017-Jul-13 22:30N 36°06' E 031°45'4 8.7
2017-Jul-13 22:00N 36°06' E 031°50'4 8.7
2017-Jul-13 21:31N 36°05' E 031°55'4 8.5
2017-Jul-13 21:00N 36°04' E 032°00'4 8.5
2017-Jul-13 20:31N 36°03' E 032°05'4 8.5
2017-Jul-13 20:00N 36°02' E 032°11'4 8.3
2017-Jul-13 19:28N 36°01' E 032°16'19 8.4
2017-Jul-13 17:10N 35°60' E 032°40'1 8.9
2017-Jul-13 17:01N 35°60' E 032°41'78 9.2
2017-Jul-13 08:29N 36°15' E 034°16'  

Dump ship's entire track history